Погода Алтьто-Пикиррина 2 недели

Парана, Бразилия

19 июня-02 июля
  • 19июня
    Сегодня
    +18°
    +29°
    Практически безоблачно
    ВремяПогодаТемператураВлажностьДавлениеВетер, м/сВероятность осадков
    00:00Ясно и безоблачно+24°C41 %731 мм4.6 м/с5 %
    03:00Ясно и безоблачно+22°C46 %732 мм3.4 м/с5 %
    06:00Практически безоблачно+20°C53 %732 мм3.8 м/с5 %
    09:00Ясно и безоблачно+21°C57 %734 мм3.3 м/с5 %
    12:00Небольшая облачность+26°C45 %734 мм3.3 м/с4 %
    15:00Практически безоблачно+29°C40 %733 мм2.7 м/с12 %
    18:00Ясно и безоблачно+26°C58 %733 мм2.0 м/с5 %
    21:00Ясно и безоблачно+23°C58 %733 мм2.9 м/с5 %
  • 20июня
    Четверг
    +18°
    +30°
    Ясно и безоблачно
    ВремяПогодаТемператураВлажностьДавлениеВетер, м/сВероятность осадков
    00:00Облачно с прояснениями+22°C54 %734 мм3.2 м/с5 %
    03:00Облачно с прояснениями+21°C51 %733 мм3.0 м/с5 %
    06:00Небольшая облачность+19°C53 %734 мм2.8 м/с5 %
    09:00Ясно и безоблачно+21°C54 %735 мм3.1 м/с5 %
    12:00Ясно и безоблачно+27°C37 %736 мм2.8 м/с5 %
    15:00Ясно и безоблачно+29°C32 %734 мм2.9 м/с5 %
    18:00Ясно и безоблачно+26°C50 %734 мм2.2 м/с5 %
    21:00Ясно и безоблачно+23°C53 %734 мм2.6 м/с5 %
  • 21июня
    Пятница
    +19°
    +30°
    Ясно и безоблачно
    ВремяПогодаТемператураВлажностьДавлениеВетер, м/сВероятность осадков
    00:00Небольшая облачность+21°C53 %734 мм3.7 м/с5 %
    03:00Практически безоблачно+20°C50 %733 мм3.8 м/с5 %
    06:00Небольшая облачность+18°C48 %733 мм3.6 м/с5 %
    09:00Небольшая облачность+20°C50 %734 мм3.9 м/с5 %
    12:00Небольшая облачность+26°C37 %734 мм4.1 м/с5 %
    15:00Ясно и безоблачно+29°C30 %732 мм4.8 м/с5 %
    18:00Ясно и безоблачно+26°C43 %732 мм2.5 м/с5 %
    21:00Небольшая облачность+24°C47 %732 мм3.6 м/с5 %
  • 22июня
    Суббота
    +20°
    +30°
    Облачно с прояснениями
    ВремяПогодаТемператураВлажностьДавлениеВетер, м/сВероятность осадков
    00:00Небольшая облачность+21°C48 %732 мм3.9 м/с5 %
    03:00Ясно и безоблачно+21°C47 %732 мм3.8 м/с5 %
    06:00Практически безоблачно+19°C52 %731 мм4.0 м/с5 %
    09:00Небольшая облачность+22°C53 %733 мм3.5 м/с5 %
    12:00Облачно с прояснениями+27°C43 %733 мм4.3 м/с5 %
    15:00Облачно с прояснениями+29°C40 %731 мм3.9 м/с5 %
    18:00Практически безоблачно+27°C50 %730 мм3.1 м/с5 %
    21:00Ясно и безоблачно+25°C47 %730 мм4.0 м/с5 %
  • 23июня
    Воскресенье
    +21°
    +32°
    Практически безоблачно
    ВремяПогодаТемператураВлажностьДавлениеВетер, м/сВероятность осадков
    00:00Ясно и безоблачно+24°C48 %731 мм4.4 м/с5 %
    03:00Ясно и безоблачно+23°C51 %731 мм3.7 м/с5 %
    06:00Ясно и безоблачно+21°C56 %731 мм3.4 м/с5 %
    09:00Практически безоблачно+23°C57 %732 мм3.7 м/с5 %
    12:00Облачно с прояснениями+28°C43 %732 мм3.4 м/с5 %
    15:00Практически безоблачно+32°C35 %730 мм3.8 м/с5 %
    18:00Практически безоблачно+28°C54 %730 мм2.0 м/с5 %
    21:00Ясно и безоблачно+26°C54 %731 мм2.7 м/с7 %
Мы используем cookies
Соглашаюсь